createdAt,value
2024-05-09T00:00:35.564Z,57.32
2024-05-09T00:03:07.522Z,57.08
2024-05-09T00:05:34.598Z,56.78
2024-05-09T00:08:01.577Z,57.00
2024-05-09T00:10:35.427Z,56.97
2024-05-09T00:13:04.819Z,57.28
2024-05-09T00:15:31.715Z,57.22
2024-05-09T00:17:58.483Z,57.34
2024-05-09T00:20:33.566Z,57.41
2024-05-09T00:23:07.050Z,57.32
2024-05-09T00:25:34.176Z,57.42
2024-05-09T00:28:00.893Z,57.38
2024-05-09T00:30:33.737Z,57.88
2024-05-09T00:33:03.540Z,57.62
2024-05-09T00:35:30.888Z,57.39
2024-05-09T00:37:57.617Z,57.81
2024-05-09T00:40:35.018Z,57.37
2024-05-09T00:43:06.083Z,57.42
2024-05-09T00:45:33.657Z,57.10
2024-05-09T00:48:01.653Z,57.13
2024-05-09T00:50:35.646Z,57.29
2024-05-09T00:53:04.571Z,57.17
2024-05-09T00:55:31.159Z,57.18
2024-05-09T00:57:57.736Z,57.35
2024-05-09T01:00:31.562Z,57.33
2024-05-09T01:03:05.634Z,57.31
2024-05-09T01:05:32.717Z,57.59
2024-05-09T01:07:59.427Z,57.38
2024-05-09T01:10:33.542Z,57.47
2024-05-09T01:13:02.781Z,57.20
2024-05-09T01:15:29.412Z,57.34
2024-05-09T01:17:56.849Z,57.50
2024-05-09T01:20:32.232Z,57.74
2024-05-09T01:23:07.189Z,57.71
2024-05-09T01:25:33.972Z,57.47
2024-05-09T01:28:00.677Z,57.53
2024-05-09T01:30:33.959Z,57.33
2024-05-09T01:33:02.962Z,57.80
2024-05-09T01:35:29.825Z,57.35
2024-05-09T01:37:56.552Z,57.17
2024-05-09T01:40:33.266Z,57.90
2024-05-09T01:43:04.614Z,58.01
2024-05-09T01:45:31.226Z,57.63
2024-05-09T01:47:58.233Z,57.36
2024-05-09T01:50:37.197Z,57.54
2024-05-09T01:53:07.837Z,57.65
2024-05-09T01:55:34.657Z,57.61
2024-05-09T01:58:01.366Z,57.61
2024-05-09T02:00:37.829Z,57.35
2024-05-09T02:03:13.332Z,57.65
2024-05-09T02:05:43.085Z,57.30
2024-05-09T02:08:15.870Z,57.88
2024-05-09T02:10:45.556Z,57.69
2024-05-09T02:13:12.984Z,57.37
2024-05-09T02:15:39.797Z,57.12
2024-05-09T02:18:07.642Z,57.54
2024-05-09T02:20:36.770Z,57.50
2024-05-09T02:23:06.140Z,57.53
2024-05-09T02:25:33.310Z,57.38
2024-05-09T02:27:59.962Z,57.86
2024-05-09T02:30:36.518Z,57.59
2024-05-09T02:33:07.785Z,58.21
2024-05-09T02:35:34.907Z,58.16
2024-05-09T02:38:01.683Z,58.19
2024-05-09T02:40:36.018Z,58.20
2024-05-09T02:43:05.481Z,57.95
2024-05-09T02:45:32.297Z,57.69
2024-05-09T02:47:59.220Z,57.76
2024-05-09T02:50:34.329Z,57.68
2024-05-09T02:53:05.423Z,57.41
2024-05-09T02:55:32.374Z,57.56
2024-05-09T02:57:59.175Z,57.60
2024-05-09T03:00:34.650Z,57.98
2024-05-09T03:03:08.071Z,58.43
2024-05-09T03:05:35.719Z,58.05
2024-05-09T03:08:02.450Z,57.72
2024-05-09T03:10:34.933Z,58.00
2024-05-09T03:13:15.043Z,58.21
2024-05-09T03:15:43.092Z,58.13
2024-05-09T03:18:10.190Z,57.71
2024-05-09T03:20:37.832Z,57.97
2024-05-09T03:23:06.404Z,57.90
2024-05-09T03:25:33.363Z,57.75
2024-05-09T03:28:00.152Z,58.11
2024-05-09T03:30:38.447Z,57.67
2024-05-09T03:33:17.173Z,57.74
2024-05-09T03:35:44.849Z,57.73
2024-05-09T03:38:11.620Z,57.60
2024-05-09T03:40:45.043Z,57.58
2024-05-09T03:43:12.505Z,57.92
2024-05-09T03:45:39.089Z,58.03
2024-05-09T03:48:06.111Z,57.69
2024-05-09T03:50:35.685Z,57.80
2024-05-09T03:53:03.516Z,57.89
2024-05-09T03:55:30.886Z,57.47
2024-05-09T03:57:57.514Z,57.51
2024-05-09T04:00:31.335Z,57.95
2024-05-09T04:03:05.535Z,57.49
2024-05-09T04:05:33.268Z,57.87
2024-05-09T04:08:00.133Z,57.70
2024-05-09T04:10:33.569Z,57.93
2024-05-09T04:13:01.767Z,57.61
2024-05-09T04:15:28.566Z,58.29
2024-05-09T04:17:55.248Z,58.15
2024-05-09T04:20:32.994Z,57.96
2024-05-09T04:23:05.738Z,57.93
2024-05-09T04:25:32.663Z,58.32
2024-05-09T04:27:59.269Z,58.24
2024-05-09T04:30:34.779Z,58.64
2024-05-09T04:33:06.168Z,58.26
2024-05-09T04:35:33.390Z,58.07
2024-05-09T04:38:00.531Z,58.30
2024-05-09T04:40:33.173Z,58.16
2024-05-09T04:43:03.213Z,58.01
2024-05-09T04:45:29.988Z,58.57
2024-05-09T04:47:56.933Z,58.33
2024-05-09T04:50:32.699Z,58.63
2024-05-09T04:53:03.528Z,58.57
2024-05-09T04:55:30.447Z,59.00
2024-05-09T04:57:57.059Z,58.57
2024-05-09T05:00:32.406Z,58.51
2024-05-09T05:03:13.746Z,58.58
2024-05-09T05:05:42.899Z,58.32
2024-05-09T05:08:16.893Z,58.46
2024-05-09T05:10:44.632Z,58.68
2024-05-09T05:13:20.461Z,58.29
2024-05-09T05:15:51.222Z,58.23
2024-05-09T05:18:18.272Z,58.53
2024-05-09T05:20:45.491Z,58.42
2024-05-09T05:23:16.489Z,58.56
2024-05-09T05:25:43.503Z,58.08
2024-05-09T05:28:10.584Z,58.32
2024-05-09T05:30:37.775Z,58.20
2024-05-09T05:33:05.369Z,57.98
2024-05-09T05:35:32.068Z,58.04
2024-05-09T05:37:58.806Z,58.07
2024-05-09T05:40:33.153Z,57.63
2024-05-09T05:43:04.829Z,57.77
2024-05-09T05:45:31.460Z,57.20
2024-05-09T05:47:58.247Z,57.84
2024-05-09T05:50:32.528Z,58.74
2024-05-09T05:53:03.223Z,58.27
2024-05-09T05:55:30.012Z,58.55
2024-05-09T05:57:56.631Z,58.65
2024-05-09T06:00:29.906Z,58.41
2024-05-09T06:03:04.976Z,58.20
2024-05-09T06:05:32.180Z,58.12
2024-05-09T06:07:59.098Z,58.50
2024-05-09T06:10:36.931Z,58.19
2024-05-09T06:13:06.356Z,57.74
2024-05-09T06:15:32.948Z,58.21
2024-05-09T06:17:59.720Z,57.42
2024-05-09T06:20:34.515Z,57.30
2024-05-09T06:23:04.224Z,57.65
2024-05-09T06:25:31.066Z,57.67
2024-05-09T06:27:57.629Z,56.87
2024-05-09T06:30:30.808Z,57.00
2024-05-09T06:33:05.932Z,56.78
2024-05-09T06:35:33.381Z,56.46
2024-05-09T06:38:00.366Z,56.26
2024-05-09T06:40:36.117Z,56.29
2024-05-09T06:43:05.518Z,56.24
2024-05-09T06:45:32.149Z,56.26
2024-05-09T06:47:58.967Z,56.17
2024-05-09T06:50:28.581Z,55.87
2024-05-09T06:53:02.313Z,55.85
2024-05-09T06:55:29.165Z,56.04
2024-05-09T06:57:55.810Z,55.93
2024-05-09T07:00:30.270Z,54.91
2024-05-09T07:03:11.629Z,54.81
2024-05-09T07:05:39.529Z,53.63
2024-05-09T07:08:06.517Z,52.69
2024-05-09T07:10:35.573Z,51.55
2024-05-09T07:13:03.015Z,49.47
2024-05-09T07:15:29.625Z,46.98
2024-05-09T07:17:56.557Z,44.95
2024-05-09T07:20:32.075Z,44.53
2024-05-09T07:23:02.618Z,44.09
2024-05-09T07:25:29.540Z,44.20
2024-05-09T07:27:56.242Z,46.45
2024-05-09T07:30:27.809Z,46.29
2024-05-09T07:33:00.503Z,46.61
2024-05-09T07:35:27.723Z,46.37
2024-05-09T07:37:54.609Z,47.11
2024-05-09T07:40:31.833Z,46.72
2024-05-09T07:43:05.350Z,47.80
2024-05-09T07:45:48.175Z,47.50
2024-05-09T07:52:38.349Z,48.62
2024-05-09T07:53:47.565Z,48.33
2024-05-09T07:56:18.587Z,48.71
2024-05-09T07:58:46.163Z,49.53
2024-05-09T08:01:12.986Z,48.77
2024-05-09T08:03:39.906Z,49.63
2024-05-09T08:06:06.590Z,49.53
2024-05-09T08:08:33.213Z,49.73
2024-05-09T08:10:59.800Z,49.16
2024-05-09T08:13:26.453Z,49.20
2024-05-09T08:15:53.180Z,49.39
2024-05-09T08:18:19.949Z,49.10
2024-05-09T08:20:47.971Z,48.48
2024-05-09T08:23:14.587Z,48.37
2024-05-09T08:25:41.211Z,47.96
2024-05-09T08:28:08.033Z,47.73
2024-05-09T08:30:37.329Z,46.93
2024-05-09T08:33:06.095Z,47.05
2024-05-09T08:35:33.350Z,47.08
2024-05-09T08:38:06.173Z,46.73
2024-05-09T08:40:36.087Z,46.94
2024-05-09T08:43:07.408Z,47.24
2024-05-09T08:45:35.132Z,45.97
2024-05-09T08:48:05.592Z,46.97
2024-05-09T08:50:38.471Z,44.24
2024-05-09T08:53:06.707Z,45.16
2024-05-09T08:55:33.379Z,45.53
2024-05-09T08:58:00.446Z,44.35
2024-05-09T09:00:35.601Z,47.85
2024-05-09T09:03:04.523Z,46.95
2024-05-09T09:05:31.762Z,46.55
2024-05-09T09:07:58.651Z,46.95
2024-05-09T09:10:31.478Z,45.44
2024-05-09T09:13:01.279Z,45.54
2024-05-09T09:15:28.038Z,44.61
2024-05-09T09:18:00.747Z,45.17
2024-05-09T09:20:35.364Z,44.48
2024-05-09T09:23:03.652Z,44.83
2024-05-09T09:25:30.420Z,43.91
2024-05-09T09:27:58.076Z,43.93
2024-05-09T09:30:34.678Z,44.14
2024-05-09T09:33:04.599Z,44.09
2024-05-09T09:35:31.408Z,43.61
2024-05-09T09:37:59.750Z,43.67
2024-05-09T09:40:32.235Z,43.78
2024-05-09T09:43:00.939Z,44.02
2024-05-09T09:45:30.764Z,44.23
2024-05-09T09:47:57.565Z,44.40
2024-05-09T09:50:31.734Z,45.20
2024-05-09T09:53:01.435Z,44.66
2024-05-09T09:55:28.324Z,43.59
2024-05-09T09:57:55.904Z,44.05
2024-05-09T10:00:27.175Z,42.42
2024-05-09T10:02:58.937Z,42.96
2024-05-09T10:05:26.067Z,43.72
2024-05-09T10:07:52.982Z,43.27
2024-05-09T10:10:30.380Z,43.27
2024-05-09T10:13:06.227Z,43.87
2024-05-09T10:15:51.986Z,44.00
2024-05-09T10:18:28.470Z,43.35
2024-05-09T10:20:57.032Z,44.20
2024-05-09T10:23:27.001Z,44.18
2024-05-09T10:26:00.661Z,43.22
2024-05-09T10:28:28.138Z,43.33
2024-05-09T10:31:07.743Z,42.46
2024-05-09T10:33:50.678Z,42.50
2024-05-09T10:36:22.570Z,41.52
2024-05-09T10:38:49.810Z,42.18
2024-05-09T10:41:16.820Z,42.91
2024-05-09T10:43:43.531Z,42.89
2024-05-09T10:46:10.638Z,42.52
2024-05-09T10:48:37.912Z,42.89
2024-05-09T10:51:04.914Z,41.76
2024-05-09T10:53:31.810Z,42.53
2024-05-09T10:55:58.961Z,42.28
2024-05-09T10:58:26.133Z,43.42
2024-05-09T11:00:57.582Z,42.25
2024-05-09T11:03:24.738Z,42.23
2024-05-09T11:05:55.268Z,42.68
2024-05-09T11:08:22.433Z,42.05
2024-05-09T11:10:49.837Z,42.51
2024-05-09T11:13:29.789Z,42.65
2024-05-09T11:15:56.404Z,42.57
2024-05-09T11:18:25.540Z,42.65
2024-05-09T11:20:53.608Z,42.08
2024-05-09T11:23:21.853Z,43.21
2024-05-09T11:25:49.823Z,41.88
2024-05-09T11:28:17.998Z,42.07
2024-05-09T11:30:44.692Z,42.75
2024-05-09T11:33:11.900Z,43.13
2024-05-09T11:35:38.545Z,43.72
2024-05-09T11:38:05.181Z,43.79
2024-05-09T11:40:34.395Z,44.55
2024-05-09T11:43:01.383Z,43.95
2024-05-09T11:45:28.203Z,42.37
2024-05-09T11:47:54.951Z,43.76
2024-05-09T11:50:27.307Z,43.20
2024-05-09T11:52:59.076Z,43.49
2024-05-09T11:55:28.120Z,41.38
2024-05-09T11:57:55.361Z,40.98
2024-05-09T12:00:29.606Z,42.12
2024-05-09T12:03:04.546Z,42.37
2024-05-09T12:05:31.571Z,43.40
2024-05-09T12:07:58.238Z,42.60
2024-05-09T12:10:32.569Z,42.86
2024-05-09T12:13:01.920Z,41.82
2024-05-09T12:15:28.958Z,43.38
2024-05-09T12:17:58.332Z,42.84
2024-05-09T12:20:35.146Z,42.62
2024-05-09T12:23:05.006Z,43.05
2024-05-09T12:25:31.595Z,44.58
2024-05-09T12:27:58.315Z,45.24
2024-05-09T12:30:33.227Z,42.82
2024-05-09T12:33:05.008Z,43.07
2024-05-09T12:35:31.890Z,42.00
2024-05-09T12:37:58.579Z,42.07
2024-05-09T12:40:34.298Z,42.48
2024-05-09T12:43:04.445Z,42.14
2024-05-09T12:45:31.407Z,42.74
2024-05-09T12:47:58.323Z,43.31
2024-05-09T12:50:31.664Z,43.67
2024-05-09T12:53:00.459Z,43.51
2024-05-09T12:55:28.343Z,44.31
2024-05-09T12:57:56.420Z,43.27
2024-05-09T13:00:28.224Z,43.16
2024-05-09T13:03:00.543Z,41.79
2024-05-09T13:05:27.821Z,42.27
2024-05-09T13:07:56.167Z,41.19
2024-05-09T13:10:29.242Z,42.25
2024-05-09T13:12:59.602Z,41.42
2024-05-09T13:15:26.583Z,41.48
2024-05-09T13:17:53.383Z,42.50
2024-05-09T13:20:29.092Z,40.75
2024-05-09T13:23:01.282Z,41.15
2024-05-09T13:25:27.941Z,42.97
2024-05-09T13:27:54.723Z,42.57
2024-05-09T13:30:29.172Z,43.78
2024-05-09T13:33:04.537Z,43.36
2024-05-09T13:35:32.089Z,43.15
2024-05-09T13:37:58.805Z,43.55
2024-05-09T13:40:32.652Z,41.88
2024-05-09T13:43:02.179Z,42.39
2024-05-09T13:45:29.035Z,43.16
2024-05-09T13:47:55.797Z,42.19
2024-05-09T13:50:31.101Z,43.67
2024-05-09T13:53:01.822Z,42.22
2024-05-09T13:55:28.520Z,43.46
2024-05-09T13:57:55.384Z,42.94
2024-05-09T14:00:37.583Z,41.54
2024-05-09T14:03:08.918Z,43.51
2024-05-09T14:05:35.832Z,42.02
2024-05-09T14:08:02.500Z,41.98
2024-05-09T14:10:31.487Z,43.02
2024-05-09T14:12:59.041Z,42.98
2024-05-09T14:15:25.690Z,42.40
2024-05-09T14:17:52.391Z,41.84
2024-05-09T14:20:27.940Z,40.38
2024-05-09T14:22:57.915Z,42.62
2024-05-09T14:25:26.583Z,43.45
2024-05-09T14:27:53.480Z,43.28
2024-05-09T14:30:29.719Z,44.14
2024-05-09T14:33:01.563Z,42.39
2024-05-09T14:35:28.364Z,42.00
2024-05-09T14:37:54.998Z,43.36
2024-05-09T14:40:34.915Z,43.68
2024-05-09T14:43:06.579Z,43.48
2024-05-09T14:45:34.428Z,43.02
2024-05-09T14:48:01.454Z,42.82
2024-05-09T14:50:35.125Z,43.13
2024-05-09T14:53:05.941Z,43.24
2024-05-09T14:55:35.178Z,42.81
2024-05-09T14:58:02.614Z,43.04
2024-05-09T15:00:35.143Z,42.66
2024-05-09T15:03:03.184Z,43.06
2024-05-09T15:05:30.149Z,43.85
2024-05-09T15:07:57.244Z,43.06
2024-05-09T15:10:31.547Z,42.52
2024-05-09T15:13:01.942Z,42.66
2024-05-09T15:15:28.541Z,43.04
2024-05-09T15:17:55.321Z,43.32
2024-05-09T15:20:30.923Z,44.73
2024-05-09T15:23:01.682Z,43.00
2024-05-09T15:25:28.415Z,43.63
2024-05-09T15:27:55.125Z,42.92
2024-05-09T15:30:29.950Z,42.34
2024-05-09T15:32:59.224Z,42.88
2024-05-09T15:35:25.820Z,41.95
2024-05-09T15:37:52.398Z,42.87
2024-05-09T15:40:26.784Z,43.86
2024-05-09T15:43:02.557Z,42.61
2024-05-09T15:45:29.592Z,42.67
2024-05-09T15:47:57.018Z,42.80
2024-05-09T15:50:35.131Z,43.02
2024-05-09T15:53:05.815Z,44.53
2024-05-09T15:55:33.758Z,43.35
2024-05-09T15:58:01.164Z,45.54
2024-05-09T16:00:36.534Z,44.20
2024-05-09T16:03:06.934Z,44.10
2024-05-09T16:05:34.025Z,44.28
2024-05-09T16:08:00.775Z,44.49
2024-05-09T16:10:32.536Z,42.66
2024-05-09T16:13:04.182Z,43.19
2024-05-09T16:15:31.184Z,43.20
2024-05-09T16:17:58.031Z,43.66
2024-05-09T16:20:34.405Z,43.07
2024-05-09T16:23:06.389Z,43.13
2024-05-09T16:25:33.100Z,44.18
2024-05-09T16:27:59.883Z,42.85
2024-05-09T16:30:33.849Z,43.70
2024-05-09T16:33:03.732Z,44.42
2024-05-09T16:35:31.180Z,43.84
2024-05-09T16:37:57.838Z,44.69
2024-05-09T16:40:34.335Z,44.34
2024-05-09T16:43:05.606Z,43.89
2024-05-09T16:45:33.194Z,44.23
2024-05-09T16:48:00.410Z,43.92
2024-05-09T16:50:32.423Z,43.19
2024-05-09T16:53:01.234Z,44.34
2024-05-09T16:55:28.026Z,43.52
2024-05-09T16:57:55.008Z,43.73
2024-05-09T17:00:31.694Z,44.05
2024-05-09T17:03:06.982Z,44.18
2024-05-09T17:05:34.288Z,44.25
2024-05-09T17:08:01.401Z,44.11
2024-05-09T17:10:32.911Z,44.10
2024-05-09T17:13:02.318Z,44.73
2024-05-09T17:15:29.388Z,44.23
2024-05-09T17:17:56.072Z,44.62
2024-05-09T17:20:29.775Z,44.94
2024-05-09T17:23:01.835Z,44.34
2024-05-09T17:25:28.543Z,44.71
2024-05-09T17:27:55.276Z,44.39
2024-05-09T17:30:29.050Z,44.40
2024-05-09T17:33:01.823Z,44.77
2024-05-09T17:35:28.696Z,45.26
2024-05-09T17:37:55.355Z,45.11
2024-05-09T17:40:30.766Z,45.16
2024-05-09T17:43:01.424Z,44.98
2024-05-09T17:45:28.398Z,45.48
2024-05-09T17:47:55.320Z,45.52
2024-05-09T17:50:27.989Z,45.19
2024-05-09T17:53:01.045Z,45.27
2024-05-09T17:55:28.035Z,45.12
2024-05-09T17:57:54.699Z,46.27
2024-05-09T18:00:29.533Z,45.92
2024-05-09T18:03:04.529Z,46.00
2024-05-09T18:05:31.585Z,46.85
2024-05-09T18:07:58.590Z,46.33
2024-05-09T18:10:32.847Z,46.81
2024-05-09T18:13:05.144Z,46.48
2024-05-09T18:15:31.942Z,46.28
2024-05-09T18:17:58.716Z,46.59
2024-05-09T18:20:36.098Z,46.53
2024-05-09T18:23:08.317Z,46.60
2024-05-09T18:25:35.101Z,46.53
2024-05-09T18:28:02.698Z,46.84
2024-05-09T18:30:34.709Z,46.71
2024-05-09T18:33:04.129Z,47.06
2024-05-09T18:35:31.298Z,46.88
2024-05-09T18:37:57.890Z,47.12
2024-05-09T18:40:32.646Z,47.29
2024-05-09T18:43:02.720Z,48.00
2024-05-09T18:45:29.543Z,47.72
2024-05-09T18:47:56.346Z,47.87
2024-05-09T18:50:31.972Z,47.94
2024-05-09T18:53:02.863Z,47.79
2024-05-09T18:55:29.606Z,47.90
2024-05-09T18:57:56.352Z,47.90
2024-05-09T19:00:31.586Z,48.31
2024-05-09T19:03:05.411Z,48.22
2024-05-09T19:05:33.244Z,48.63
2024-05-09T19:07:59.969Z,49.76
2024-05-09T19:10:33.628Z,49.04
2024-05-09T19:13:04.320Z,49.11
2024-05-09T19:15:33.704Z,49.27
2024-05-09T19:18:00.630Z,49.52
2024-05-09T19:20:33.160Z,49.33
2024-05-09T19:23:01.423Z,50.71
2024-05-09T19:25:28.026Z,50.71
2024-05-09T19:27:54.702Z,50.67
2024-05-09T19:30:29.911Z,50.45
2024-05-09T19:33:04.682Z,51.73
2024-05-09T19:35:31.483Z,52.60
2024-05-09T19:37:58.367Z,52.47
2024-05-09T19:40:31.085Z,53.31
2024-05-09T19:42:59.994Z,53.32
2024-05-09T19:45:26.682Z,54.08
2024-05-09T19:47:53.398Z,53.61
2024-05-09T19:50:27.022Z,53.06
2024-05-09T19:53:02.792Z,52.97
2024-05-09T19:55:29.409Z,52.86
2024-05-09T19:57:56.076Z,52.29
2024-05-09T20:00:29.353Z,52.67
2024-05-09T20:03:02.056Z,52.73
2024-05-09T20:05:31.087Z,52.64
2024-05-09T20:07:58.025Z,52.51
2024-05-09T20:10:30.036Z,52.51
2024-05-09T20:12:59.751Z,52.14
2024-05-09T20:15:26.716Z,52.17
2024-05-09T20:17:53.495Z,52.40
2024-05-09T20:20:28.460Z,52.09
2024-05-09T20:23:02.958Z,52.35
2024-05-09T20:25:29.620Z,51.97
2024-05-09T20:27:56.349Z,52.25
2024-05-09T20:30:30.467Z,52.17
2024-05-09T20:32:59.457Z,52.28
2024-05-09T20:35:26.697Z,52.05
2024-05-09T20:37:53.598Z,52.42
2024-05-09T20:40:28.358Z,52.29
2024-05-09T20:42:59.146Z,52.52
2024-05-09T20:45:25.959Z,52.85
2024-05-09T20:47:52.733Z,52.64
2024-05-09T20:50:28.189Z,53.20
2024-05-09T20:53:02.730Z,52.71
2024-05-09T20:55:29.925Z,52.92
2024-05-09T20:57:56.988Z,52.77
2024-05-09T21:00:30.351Z,52.31
2024-05-09T21:03:05.797Z,52.50
2024-05-09T21:05:33.077Z,52.56
2024-05-09T21:07:59.974Z,52.62
2024-05-09T21:10:27.415Z,53.00
2024-05-09T21:12:57.906Z,52.99
2024-05-09T21:15:24.667Z,52.95
2024-05-09T21:17:51.328Z,53.14
2024-05-09T21:20:23.913Z,53.12
2024-05-09T21:22:55.617Z,52.98
2024-05-09T21:25:22.506Z,52.73
2024-05-09T21:27:49.263Z,52.85
2024-05-09T21:30:22.705Z,53.00
2024-05-09T21:32:58.393Z,52.87
2024-05-09T21:35:25.045Z,52.82
2024-05-09T21:37:51.658Z,53.15
2024-05-09T21:40:27.024Z,53.04
2024-05-09T21:43:00.371Z,53.20
2024-05-09T21:45:27.241Z,53.35
2024-05-09T21:47:54.085Z,53.52
2024-05-09T21:50:27.598Z,53.27
2024-05-09T21:52:58.844Z,53.27
2024-05-09T21:55:25.482Z,53.60
2024-05-09T21:57:52.163Z,53.52
2024-05-09T22:00:28.648Z,53.93
2024-05-09T22:03:02.057Z,53.70
2024-05-09T22:05:28.962Z,53.98
2024-05-09T22:07:55.739Z,54.03
2024-05-09T22:10:26.561Z,53.71
2024-05-09T22:12:59.254Z,54.03
2024-05-09T22:15:26.022Z,53.47
2024-05-09T22:17:52.799Z,53.63
2024-05-09T22:20:28.690Z,53.80
2024-05-09T22:23:02.299Z,53.40
2024-05-09T22:25:30.467Z,53.77
2024-05-09T22:27:57.768Z,53.82
2024-05-09T22:30:33.142Z,53.68
2024-05-09T22:33:03.691Z,53.74
2024-05-09T22:35:30.575Z,54.41
2024-05-09T22:37:57.216Z,54.27
2024-05-09T22:40:29.436Z,54.11
2024-05-09T22:43:05.578Z,54.16
2024-05-09T22:45:32.303Z,54.08
2024-05-09T22:47:59.387Z,54.23
2024-05-09T22:50:27.301Z,54.41
2024-05-09T22:52:59.165Z,54.17
2024-05-09T22:55:25.857Z,54.09
2024-05-09T22:57:52.595Z,54.25
2024-05-09T23:00:26.307Z,54.37
2024-05-09T23:02:57.911Z,54.48
2024-05-09T23:05:24.715Z,54.54
2024-05-09T23:07:51.418Z,54.58
2024-05-09T23:10:25.148Z,54.31
2024-05-09T23:12:58.756Z,54.50
2024-05-09T23:15:25.623Z,54.41
2024-05-09T23:17:52.480Z,54.66
2024-05-09T23:20:29.790Z,54.40
2024-05-09T23:23:03.338Z,54.71
2024-05-09T23:25:30.042Z,54.73
2024-05-09T23:27:56.921Z,54.81
2024-05-09T23:30:33.293Z,54.84
2024-05-09T23:33:05.005Z,54.95
2024-05-09T23:35:31.821Z,55.09
2024-05-09T23:37:58.537Z,55.10
2024-05-09T23:40:36.721Z,55.14
2024-05-09T23:43:06.710Z,55.00
2024-05-09T23:45:33.758Z,55.15
2024-05-09T23:48:01.077Z,54.95
2024-05-09T23:50:34.405Z,55.18
2024-05-09T23:53:04.834Z,55.41
2024-05-09T23:55:32.186Z,55.51
2024-05-09T23:57:59.466Z,55.31
